Time;durP1;ratioP1;P1;durP2;ratioP2;P2;SDS_P1;SDS_P2;PMS_P1;PMS_P2;Temp;Humidity;BMP_temperature;BMP_pressure;BME280_temperature;BME280_humidity;BME280_pressure;Samples;Min_cycle;Max_cycle;Signal;HPM_P1;HPM_P2
2023/08/13 00:03:06;;;;;;;18.38;9.75;;;;;18.60;96661.00;;;;8310236;28;20340;-75
2023/08/13 00:07:11;;;;;;;23.17;11.45;;;;;18.60;96659.00;;;;8314221;28;20631;-74
2023/08/13 00:11:16;;;;;;;19.85;10.43;;;;;18.50;96655.00;;;;8279774;28;20237;-74
2023/08/13 00:15:19;;;;;;;17.10;8.77;;;;;18.50;96658.00;;;;8304349;28;20197;-74
2023/08/13 00:19:24;;;;;;;19.65;8.80;;;;;18.50;96662.00;;;;8314146;28;20232;-75
2023/08/13 00:23:29;;;;;;;20.17;8.85;;;;;18.50;96668.00;;;;8306722;28;20598;-72
2023/08/13 00:27:33;;;;;;;13.23;8.65;;;;;18.50;96673.00;;;;8290701;28;20202;-75
2023/08/13 00:31:36;;;;;;;19.15;9.98;;;;;18.40;96669.00;;;;8307716;28;20225;-74
2023/08/13 00:35:46;;;;;;;14.38;8.63;;;;;18.40;96674.00;;;;8300533;28;20221;-74
2023/08/13 00:39:53;;;;;;;12.55;7.95;;;;;18.40;96679.00;;;;8314190;28;20927;-73
2023/08/13 00:43:56;;;;;;;14.18;8.80;;;;;18.40;96678.00;;;;8298822;28;20202;-73
2023/08/13 00:48:00;;;;;;;19.30;9.52;;;;;18.30;96688.00;;;;8314444;28;20232;-74
2023/08/13 00:52:06;;;;;;;17.05;9.50;;;;;18.30;96690.00;;;;8313578;28;20240;-73
2023/08/13 00:56:10;;;;;;;16.92;9.82;;;;;18.20;96696.00;;;;8312481;28;20228;-73
2023/08/13 01:00:16;;;;;;;17.75;9.82;;;;;18.20;96707.00;;;;8294561;28;20286;-74
2023/08/13 01:04:19;;;;;;;20.10;9.05;;;;;18.20;96709.00;;;;8306121;28;20260;-75
2023/08/13 01:08:36;;;;;;;18.08;9.45;;;;;18.10;96696.00;;;;8312669;28;20555;-74
2023/08/13 01:12:47;;;;;;;24.38;9.93;;;;;18.00;96692.00;;;;8313827;28;20322;-75
2023/08/13 01:16:52;;;;;;;20.80;10.13;;;;;18.00;96693.00;;;;8311631;28;20205;-73
2023/08/13 01:20:55;;;;;;;16.00;9.45;;;;;17.90;96693.00;;;;8307600;28;20224;-75
2023/08/13 01:25:03;;;;;;;19.05;10.68;;;;;17.80;96697.00;;;;8316746;28;20304;-74
2023/08/13 01:29:14;;;;;;;20.27;9.93;;;;;17.80;96695.00;;;;8318171;28;20201;-73
2023/08/13 01:33:26;;;;;;;17.23;9.27;;;;;17.90;96692.00;;;;8318265;28;20205;-74
2023/08/13 01:37:31;;;;;;;25.23;10.02;;;;;17.80;96690.00;;;;8316127;28;20213;-74
2023/08/13 01:41:53;;;;;;;13.80;7.65;;;;;17.80;96685.00;;;;8320288;28;20201;-74
2023/08/13 01:45:56;;;;;;;26.80;11.68;;;;;17.70;96683.00;;;;8316778;28;20210;-74
2023/08/13 01:49:59;;;;;;;25.17;10.60;;;;;17.70;96688.00;;;;8318738;28;20271;-74
2023/08/13 01:54:03;;;;;;;24.42;10.20;;;;;17.60;96686.00;;;;8316198;28;20206;-74
2023/08/13 01:58:09;;;;;;;21.75;10.85;;;;;17.50;96673.00;;;;8316271;28;20197;-74
2023/08/13 02:02:12;;;;;;;21.02;9.15;;;;;17.50;96667.00;;;;8310773;28;20233;-75
2023/08/13 02:06:16;;;;;;;87.22;12.07;;;;;17.50;96666.00;;;;8315802;28;20208;-75
2023/08/13 02:10:21;;;;;;;23.02;10.30;;;;;17.40;96656.00;;;;8314672;28;20225;-74
2023/08/13 02:14:28;;;;;;;27.75;11.55;;;;;17.30;96666.00;;;;8292450;28;20205;-73
2023/08/13 02:18:32;;;;;;;23.80;12.05;;;;;17.40;96665.00;;;;8310267;28;20205;-73
2023/08/13 02:22:35;;;;;;;18.95;11.43;;;;;17.50;96669.00;;;;8316580;28;20232;-75
2023/08/13 02:26:41;;;;;;;37.28;13.63;;;;;17.50;96665.00;;;;8315308;28;20216;-75
2023/08/13 02:30:46;;;;;;;26.52;11.98;;;;;17.50;96666.00;;;;8316357;28;20328;-74
2023/08/13 02:34:50;;;;;;;21.58;10.80;;;;;17.50;96666.00;;;;8310048;28;20209;-75
2023/08/13 02:38:53;;;;;;;60.97;15.77;;;;;17.40;96674.00;;;;8316836;28;20253;-75
2023/08/13 02:42:56;;;;;;;28.02;12.50;;;;;17.40;96677.00;;;;8316435;28;20709;-76
2023/08/13 02:47:06;;;;;;;19.08;10.70;;;;;17.40;96677.00;;;;8313656;28;20791;-76
2023/08/13 02:51:10;;;;;;;30.58;11.27;;;;;17.30;96681.00;;;;8318551;28;20754;-75
2023/08/13 02:55:13;;;;;;;20.00;9.88;;;;;17.30;96684.00;;;;8308259;28;20209;-76
2023/08/13 02:59:16;;;;;;;18.45;9.80;;;;;17.20;96688.00;;;;8315818;28;20782;-76
2023/08/13 03:03:24;;;;;;;17.60;9.45;;;;;17.10;96682.00;;;;8330799;22;20226;-75
2023/08/13 03:07:43;;;;;;;60.10;12.90;;;;;17.00;96685.00;;;;8305869;28;20194;-75
2023/08/13 03:11:48;;;;;;;111.50;16.27;;;;;16.90;96676.00;;;;8315359;28;20229;-75
2023/08/13 03:15:52;;;;;;;401.60;15.57;;;;;16.90;96671.00;;;;8314655;28;20228;-76
2023/08/13 03:19:58;;;;;;;294.35;21.13;;;;;16.80;96673.00;;;;8317477;28;20317;-75
2023/08/13 03:24:02;;;;;;;360.35;24.23;;;;;16.80;96679.00;;;;8315609;28;20785;-78
2023/08/13 03:28:05;;;;;;;129.80;18.98;;;;;16.70;96683.00;;;;8310468;28;20206;-79
2023/08/13 03:32:08;;;;;;;28.73;12.48;;;;;16.80;96680.00;;;;8296437;28;20248;-77
2023/08/13 03:36:13;;;;;;;103.63;17.15;;;;;16.80;96676.00;;;;8315793;28;20197;-76
2023/08/13 03:40:18;;;;;;;41.47;14.15;;;;;16.70;96678.00;;;;8314148;28;20202;-76
2023/08/13 03:44:21;;;;;;;42.33;13.93;;;;;16.70;96691.00;;;;8318265;28;20293;-77
2023/08/13 03:48:25;;;;;;;28.77;12.13;;;;;16.60;96669.00;;;;8311704;28;20198;-75
2023/08/13 03:52:30;;;;;;;205.95;16.67;;;;;16.70;96682.00;;;;8308518;28;20664;-78
2023/08/13 03:56:37;;;;;;;29.25;12.77;;;;;16.60;96682.00;;;;8307276;28;20201;-77
2023/08/13 04:00:40;;;;;;;46.45;12.60;;;;;16.60;96684.00;;;;8309778;28;20240;-79
2023/08/13 04:04:43;;;;;;;44.97;15.25;;;;;16.60;96676.00;;;;8289601;28;20208;-77
2023/08/13 04:08:50;;;;;;;19.80;11.23;;;;;16.60;96682.00;;;;8298401;28;21851;-76
2023/08/13 04:12:55;;;;;;;37.42;13.25;;;;;16.60;96693.00;;;;8295631;28;20264;-79
2023/08/13 04:16:58;;;;;;;166.30;19.08;;;;;16.60;96685.00;;;;8292013;28;20627;-81
2023/08/13 04:21:02;;;;;;;36.60;12.77;;;;;16.60;96695.00;;;;8295953;28;20780;-78
2023/08/13 04:25:08;;;;;;;26.52;12.35;;;;;16.70;96702.00;;;;8292011;28;20734;-78
2023/08/13 04:29:12;;;;;;;30.63;12.07;;;;;16.80;96701.00;;;;8295202;28;20282;-79
2023/08/13 04:33:15;;;;;;;55.10;13.73;;;;;16.90;96691.00;;;;8293451;28;20241;-78
2023/08/13 04:37:25;;;;;;;50.70;13.90;;;;;17.00;96681.00;;;;8289023;28;20248;-81
2023/08/13 04:41:30;;;;;;;33.78;13.98;;;;;17.20;96674.00;;;;8298938;28;20202;-80
2023/08/13 04:45:36;;;;;;;26.10;12.82;;;;;17.30;96690.00;;;;8287757;28;21821;-81
2023/08/13 04:49:43;;;;;;;23.70;12.95;;;;;17.50;96678.00;;;;8287590;28;20217;-77
2023/08/13 04:53:48;;;;;;;22.35;12.90;;;;;17.70;96678.00;;;;8284873;28;20344;-76
2023/08/13 04:57:58;;;;;;;22.55;11.73;;;;;17.90;96697.00;;;;8307580;28;20685;-79
2023/08/13 05:02:03;;;;;;;19.88;10.60;;;;;18.10;96690.00;;;;8301543;28;20272;-81
2023/08/13 05:06:07;;;;;;;23.08;11.00;;;;;18.30;96694.00;;;;8291723;28;20323;-82
2023/08/13 05:10:15;;;;;;;15.48;9.10;;;;;18.40;96688.00;;;;8284603;28;20285;-83
2023/08/13 05:14:19;;;;;;;15.57;8.43;;;;;18.60;96689.00;;;;8294244;28;20720;-83
2023/08/13 05:18:27;;;;;;;16.38;8.80;;;;;18.80;96685.00;;;;8289510;28;20198;-80
2023/08/13 05:22:34;;;;;;;24.38;11.27;;;;;19.00;96688.00;;;;8300380;28;20465;-79
2023/08/13 05:26:40;;;;;;;16.88;9.50;;;;;19.20;96668.00;;;;8294400;28;20659;-76
2023/08/13 05:30:45;;;;;;;15.15;9.85;;;;;19.50;96684.00;;;;8298845;28;20229;-80
2023/08/13 05:34:55;;;;;;;16.15;9.05;;;;;19.70;96685.00;;;;8296032;28;20618;-76
2023/08/13 05:39:05;;;;;;;13.27;8.55;;;;;19.80;96685.00;;;;8291305;28;20226;-74
2023/08/13 05:43:08;;;;;;;12.95;7.45;;;;;19.80;96695.00;;;;8302733;28;20634;-78
2023/08/13 05:47:13;;;;;;;13.77;8.05;;;;;19.90;96690.00;;;;8296133;28;20260;-78
2023/08/13 05:51:17;;;;;;;10.63;7.28;;;;;20.00;96671.00;;;;8298865;28;20928;-75
2023/08/13 05:55:21;;;;;;;10.18;7.70;;;;;20.10;96693.00;;;;8292137;28;20666;-76
2023/08/13 05:59:27;;;;;;;12.30;7.20;;;;;20.10;96715.00;;;;8298004;28;20222;-76
2023/08/13 06:03:34;;;;;;;11.50;8.10;;;;;20.20;96698.00;;;;8285342;28;20229;-75
2023/08/13 06:07:37;;;;;;;15.48;8.75;;;;;20.60;96700.00;;;;8289497;28;20571;-76
2023/08/13 06:11:42;;;;;;;10.45;7.80;;;;;21.10;96697.00;;;;8293394;28;20829;-75
2023/08/13 06:15:45;;;;;;;11.88;7.85;;;;;21.60;96701.00;;;;8304275;28;20344;-76
2023/08/13 06:19:55;;;;;;;10.30;6.82;;;;;21.80;96700.00;;;;8284929;28;20276;-77
2023/08/13 06:23:58;;;;;;;8.27;7.22;;;;;22.20;96707.00;;;;8303286;28;20688;-76
2023/08/13 06:28:02;;;;;;;7.45;6.70;;;;;22.60;96693.00;;;;8292438;28;20241;-78
2023/08/13 06:32:06;;;;;;;9.02;6.65;;;;;22.90;96697.00;;;;8292806;28;20225;-76
2023/08/13 06:36:10;;;;;;;6.55;5.95;;;;;23.20;96705.00;;;;8294971;28;20205;-76
2023/08/13 06:40:14;;;;;;;6.57;5.90;;;;;23.50;96705.00;;;;8292172;28;20194;-76
2023/08/13 06:44:19;;;;;;;6.20;5.65;;;;;23.70;96704.00;;;;8301083;28;20202;-80
2023/08/13 06:48:26;;;;;;;6.50;5.70;;;;;23.90;96712.00;;;;8296477;28;21312;-77
2023/08/13 06:52:36;;;;;;;5.68;5.15;;;;;23.90;96721.00;;;;8298700;28;20726;-77
2023/08/13 06:56:39;;;;;;;6.40;4.93;;;;;24.00;96713.00;;;;8300594;28;20240;-77
2023/08/13 07:00:42;;;;;;;6.40;4.85;;;;;24.00;96722.00;;;;8284871;28;20202;-76
2023/08/13 07:04:45;;;;;;;5.82;4.43;;;;;24.10;96721.00;;;;8290208;28;20558;-76
2023/08/13 07:09:01;;;;;;;9.43;4.88;;;;;24.00;96729.00;;;;8289078;28;20264;-72
2023/08/13 07:13:05;;;;;;;11.85;4.57;;;;;23.90;96731.00;;;;8292878;28;20548;-75
2023/08/13 07:17:10;;;;;;;8.85;4.53;;;;;23.90;96727.00;;;;8298086;28;20209;-78
2023/08/13 07:21:16;;;;;;;6.07;4.63;;;;;24.00;96720.00;;;;8289020;28;20197;-76
2023/08/13 07:25:22;;;;;;;7.78;4.70;;;;;24.00;96701.00;;;;8303512;28;20220;-77
2023/08/13 07:29:26;;;;;;;9.52;5.05;;;;;23.80;96693.00;;;;8290835;28;20214;-80
2023/08/13 07:33:32;;;;;;;7.68;4.68;;;;;23.90;96700.00;;;;8292545;28;20230;-77
2023/08/13 07:37:35;;;;;;;5.40;4.10;;;;;23.90;96703.00;;;;8285393;28;20236;-75
2023/08/13 07:41:40;;;;;;;4.30;3.83;;;;;24.00;96696.00;;;;8299377;28;20205;-82
2023/08/13 07:45:46;;;;;;;7.60;4.38;;;;;24.00;96701.00;;;;8293209;28;20279;-78
2023/08/13 07:49:50;;;;;;;4.35;4.03;;;;;24.10;96701.00;;;;8298316;28;20233;-76
2023/08/13 07:53:55;;;;;;;8.93;4.47;;;;;24.20;96703.00;;;;8279754;28;20962;-80
2023/08/13 07:57:59;;;;;;;5.07;4.05;;;;;24.30;96706.00;;;;8294386;28;20229;-78
2023/08/13 08:02:07;;;;;;;8.45;4.10;;;;;24.40;96705.00;;;;8289751;28;20241;-82
2023/08/13 08:06:13;;;;;;;3.92;3.53;;;;;24.60;96712.00;;;;8291066;28;20217;-80
2023/08/13 08:10:16;;;;;;;4.18;3.78;;;;;24.80;96723.00;;;;8291471;28;20198;-76
2023/08/13 08:14:21;;;;;;;4.57;3.65;;;;;25.10;96728.00;;;;8285935;28;20229;-74
2023/08/13 08:18:28;;;;;;;8.30;4.00;;;;;25.40;96723.00;;;;8285579;28;20233;-73
2023/08/13 08:22:34;;;;;;;4.57;3.50;;;;;25.50;96731.00;;;;8303212;28;20213;-77
2023/08/13 08:26:38;;;;;;;3.45;3.00;;;;;25.50;96729.00;;;;8282312;28;20656;-75
2023/08/13 08:30:42;;;;;;;5.20;3.67;;;;;25.70;96727.00;;;;8283544;28;20297;-74
2023/08/13 08:34:49;;;;;;;10.05;4.05;;;;;25.90;96728.00;;;;8294917;28;20226;-77
2023/08/13 08:38:52;;;;;;;3.53;3.15;;;;;26.10;96739.00;;;;8292916;28;20214;-74
2023/08/13 08:42:56;;;;;;;4.65;3.45;;;;;26.10;96728.00;;;;8294292;28;20281;-74
2023/08/13 08:47:06;;;;;;;3.05;2.80;;;;;26.20;96717.00;;;;8290428;28;20231;-72
2023/08/13 08:51:19;;;;;;;3.33;2.97;;;;;26.30;96711.00;;;;8294100;28;20231;-73
2023/08/13 08:55:25;;;;;;;5.88;2.90;;;;;26.20;96720.00;;;;8284075;28;20241;-73
2023/08/13 08:59:28;;;;;;;5.40;2.83;;;;;26.10;96715.00;;;;8292354;28;20203;-74
2023/08/13 09:03:33;;;;;;;4.97;3.05;;;;;26.20;96711.00;;;;8283070;28;20826;-74
2023/08/13 09:07:40;;;;;;;3.25;3.00;;;;;26.40;96702.00;;;;8294732;28;20201;-73
2023/08/13 09:11:46;;;;;;;7.47;2.88;;;;;26.70;96713.00;;;;8294750;28;20215;-73
2023/08/13 09:15:50;;;;;;;4.40;3.00;;;;;26.90;96703.00;;;;8284174;28;20201;-72
2023/08/13 09:19:57;;;;;;;5.32;2.97;;;;;26.90;96705.00;;;;8302199;28;20209;-72
2023/08/13 09:24:05;;;;;;;3.17;2.90;;;;;26.80;96701.00;;;;8291886;28;20206;-74
2023/08/13 09:28:08;;;;;;;5.60;3.38;;;;;26.80;96710.00;;;;8288434;28;20213;-73
2023/08/13 09:32:13;;;;;;;5.18;2.70;;;;;26.90;96706.00;;;;8297574;28;20233;-72
2023/08/13 09:36:17;;;;;;;4.63;2.60;;;;;26.90;96704.00;;;;8295922;28;20205;-72
2023/08/13 09:40:23;;;;;;;3.83;2.80;;;;;26.70;96718.00;;;;8283338;28;20292;-73
2023/08/13 09:44:27;;;;;;;5.68;2.60;;;;;26.00;96726.00;;;;8295081;28;20228;-81
2023/08/13 09:48:32;;;;;;;4.38;2.80;;;;;25.50;96724.00;;;;8301619;28;20292;-66
2023/08/13 09:52:39;;;;;;;4.47;3.78;;;;;25.20;96712.00;;;;8303758;28;20383;-72
2023/08/13 09:56:48;;;;;;;9.32;3.70;;;;;25.10;96701.00;;;;8291683;28;20304;-71
2023/08/13 10:00:52;;;;;;;2.70;2.55;;;;;24.90;96700.00;;;;8287048;28;20293;-75
2023/08/13 10:04:59;;;;;;;2.40;2.28;;;;;24.80;96691.00;;;;8299147;28;20210;-79
2023/08/13 10:09:07;;;;;;;2.63;2.42;;;;;24.60;96683.00;;;;8295957;28;20193;-79
2023/08/13 10:13:12;;;;;;;3.88;2.45;;;;;24.70;96690.00;;;;8291865;28;20313;-77
2023/08/13 10:17:19;;;;;;;3.72;3.05;;;;;24.90;96677.00;;;;8298291;28;20280;-72
2023/08/13 10:21:33;;;;;;;3.58;2.63;;;;;25.10;96677.00;;;;8295217;28;21690;-71
2023/08/13 10:25:44;;;;;;;3.30;3.00;;;;;25.20;96681.00;;;;8295578;28;20260;-70
2023/08/13 10:29:49;;;;;;;6.47;3.45;;;;;25.30;96675.00;;;;8292133;28;20201;-70
2023/08/13 10:34:10;;;;;;;5.55;3.40;;;;;25.10;96673.00;;;;8292951;28;20794;-70
2023/08/13 10:38:16;;;;;;;4.45;3.42;;;;;25.10;96682.00;;;;8301580;28;20633;-72
2023/08/13 10:42:50;;;;;;;5.85;3.42;;;;;25.10;96676.00;;;;8298703;28;20201;-71
2023/08/13 10:46:54;;;;;;;3.88;3.58;;;;;25.00;96683.00;;;;8296307;28;20728;-72
2023/08/13 10:51:00;;;;;;;3.70;3.40;;;;;25.10;96685.00;;;;8297011;28;20312;-71
2023/08/13 10:55:05;;;;;;;4.15;3.47;;;;;24.90;96689.00;;;;8294474;28;20229;-72
2023/08/13 10:59:11;;;;;;;5.53;4.03;;;;;24.60;96682.00;;;;8292266;28;20197;-73
2023/08/13 11:03:19;;;;;;;4.60;3.83;;;;;24.40;96678.00;;;;8294046;28;20316;-75
2023/08/13 11:07:23;;;;;;;4.38;3.38;;;;;24.20;96676.00;;;;8292246;28;20234;-72
2023/08/13 11:11:29;;;;;;;5.40;3.15;;;;;24.20;96673.00;;;;8290615;28;20549;-71
2023/08/13 11:15:33;;;;;;;4.57;2.88;;;;;24.20;96660.00;;;;8294905;28;21988;-71
2023/08/13 11:19:45;;;;;;;5.15;3.50;;;;;24.60;96657.00;;;;8286822;28;20564;-72
2023/08/13 11:23:49;;;;;;;5.05;3.72;;;;;25.10;96659.00;;;;8271117;28;20203;-73
2023/08/13 11:27:55;;;;;;;4.65;3.67;;;;;25.70;96658.00;;;;8293353;28;20461;-72
2023/08/13 11:32:01;;;;;;;3.88;3.00;;;;;26.50;96658.00;;;;8284245;28;20301;-68
2023/08/13 11:36:07;;;;;;;3.63;3.33;;;;;27.80;96658.00;;;;8301197;28;20228;-69
2023/08/13 11:40:11;;;;;;;4.43;3.33;;;;;28.70;96664.00;;;;8286322;28;20205;-69
2023/08/13 11:44:20;;;;;;;3.97;3.53;;;;;29.90;96659.00;;;;8283186;28;20197;-70
2023/08/13 11:48:27;;;;;;;4.15;3.00;;;;;30.80;96652.00;;;;8285799;28;20260;-70
2023/08/13 11:52:34;;;;;;;4.75;2.92;;;;;31.90;96646.00;;;;8287087;28;20226;-71
2023/08/13 11:56:42;;;;;;;3.55;2.60;;;;;32.70;96650.00;;;;8288818;28;20659;-69
2023/08/13 12:00:47;;;;;;;2.95;2.70;;;;;33.40;96652.00;;;;8284961;28;20200;-71
2023/08/13 12:04:52;;;;;;;8.07;2.88;;;;;34.20;96654.00;;;;8296311;28;20202;-70
2023/08/13 12:08:57;;;;;;;2.67;2.45;;;;;34.50;96656.00;;;;8292136;28;20204;-71
2023/08/13 12:13:01;;;;;;;3.25;2.70;;;;;33.90;96646.00;;;;8281221;28;20205;-70
2023/08/13 12:17:04;;;;;;;2.83;2.60;;;;;33.50;96647.00;;;;8281499;28;20198;-70
2023/08/13 12:21:12;;;;;;;7.10;3.60;;;;;33.00;96634.00;;;;8285966;28;20206;-69
2023/08/13 12:25:17;;;;;;;3.83;2.70;;;;;32.20;96632.00;;;;8284211;28;20204;-69
2023/08/13 12:29:21;;;;;;;2.90;2.70;;;;;32.10;96636.00;;;;8292622;28;20662;-72
2023/08/13 12:33:24;;;;;;;2.58;2.38;;;;;32.00;96626.00;;;;8295880;28;20283;-68
2023/08/13 12:37:31;;;;;;;2.47;1.88;;;;;31.60;96619.00;;;;8292890;28;20678;-68
2023/08/13 12:41:36;;;;;;;2.40;2.20;;;;;31.30;96623.00;;;;8290208;28;20202;-68
2023/08/13 12:45:42;;;;;;;2.70;2.45;;;;;31.10;96610.00;;;;8286596;28;20620;-68
2023/08/13 12:49:48;;;;;;;2.40;2.20;;;;;31.00;96612.00;;;;8293427;28;20296;-69
2023/08/13 12:53:52;;;;;;;5.25;2.65;;;;;31.10;96607.00;;;;8288087;28;20233;-69
2023/08/13 12:58:14;;;;;;;2.90;2.60;;;;;31.10;96602.00;;;;8284919;28;20281;-68
2023/08/13 13:02:18;;;;;;;3.25;2.80;;;;;30.90;96597.00;;;;8285018;28;20262;-68
2023/08/13 13:06:23;;;;;;;6.05;2.85;;;;;30.90;96595.00;;;;8289973;28;20670;-69
2023/08/13 13:10:27;;;;;;;3.55;2.65;;;;;31.00;96590.00;;;;8274060;28;20639;-68
2023/08/13 13:14:34;;;;;;;2.53;2.30;;;;;31.10;96584.00;;;;8273827;28;20241;-68
2023/08/13 13:18:38;;;;;;;3.80;2.50;;;;;31.20;96580.00;;;;8285521;28;20666;-68
2023/08/13 13:22:42;;;;;;;2.83;2.30;;;;;31.20;96577.00;;;;8287680;28;20775;-71
2023/08/13 13:26:48;;;;;;;2.80;2.08;;;;;31.20;96581.00;;;;8299187;28;20699;-70
2023/08/13 13:30:51;;;;;;;4.00;2.20;;;;;31.30;96582.00;;;;8290285;28;20285;-69
2023/08/13 13:34:55;;;;;;;4.05;2.45;;;;;31.40;96582.00;;;;8293738;28;20237;-78
2023/08/13 13:38:59;;;;;;;2.72;2.50;;;;;31.90;96581.00;;;;8295179;28;20205;-78
2023/08/13 13:43:03;;;;;;;3.03;2.55;;;;;32.60;96580.00;;;;8294882;28;20210;-75
2023/08/13 13:47:07;;;;;;;2.10;2.00;;;;;33.30;96570.00;;;;8303400;28;20208;-76
2023/08/13 13:51:14;;;;;;;3.42;2.25;;;;;33.80;96561.00;;;;8291087;28;20194;-78
2023/08/13 13:55:17;;;;;;;2.47;2.28;;;;;34.30;96560.00;;;;8293343;28;20213;-76
2023/08/13 13:59:21;;;;;;;3.08;2.50;;;;;35.10;96551.00;;;;8292751;28;20205;-74
2023/08/13 14:03:25;;;;;;;2.00;1.85;;;;;35.30;96548.00;;;;8297329;28;20240;-77
2023/08/13 14:07:30;;;;;;;3.53;2.38;;;;;35.60;96546.00;;;;8291920;28;20328;-77
2023/08/13 14:11:34;;;;;;;2.70;2.40;;;;;34.90;96548.00;;;;8298269;28;20297;-77
2023/08/13 14:15:40;;;;;;;3.03;2.72;;;;;34.10;96551.00;;;;8303547;28;20229;-77
2023/08/13 14:19:44;;;;;;;3.65;2.47;;;;;33.40;96560.00;;;;8294560;28;20212;-76
2023/08/13 14:23:47;;;;;;;3.72;2.50;;;;;33.00;96548.00;;;;8302618;28;20844;-77
2023/08/13 14:27:52;;;;;;;3.53;2.50;;;;;32.80;96549.00;;;;8292820;28;20201;-77
2023/08/13 14:31:56;;;;;;;2.45;2.25;;;;;32.50;96543.00;;;;8300183;28;20621;-77
2023/08/13 14:36:02;;;;;;;3.33;2.50;;;;;32.00;96544.00;;;;8304042;28;20292;-77
2023/08/13 14:40:11;;;;;;;4.63;2.83;;;;;31.50;96541.00;;;;8316062;28;20209;-77
2023/08/13 14:44:20;;;;;;;3.33;2.60;;;;;31.20;96549.00;;;;8293748;28;20320;-77
2023/08/13 14:48:25;;;;;;;4.25;2.80;;;;;31.00;96542.00;;;;8290077;28;20817;-77
2023/08/13 14:52:28;;;;;;;2.78;2.60;;;;;30.70;96545.00;;;;8285717;28;20206;-77
2023/08/13 14:56:31;;;;;;;5.25;3.50;;;;;30.50;96549.00;;;;8313021;28;20246;-75
2023/08/13 15:00:34;;;;;;;3.40;3.10;;;;;30.30;96554.00;;;;8313686;28;20209;-76
2023/08/13 15:04:44;;;;;;;4.07;3.70;;;;;30.00;96552.00;;;;8287197;28;20268;-74
2023/08/13 15:08:47;;;;;;;3.30;3.00;;;;;29.80;96567.00;;;;8298635;28;20296;-74
2023/08/13 15:12:50;;;;;;;3.72;3.00;;;;;29.50;96552.00;;;;8297724;28;20212;-76
2023/08/13 15:16:53;;;;;;;5.97;3.20;;;;;29.30;96552.00;;;;8299704;28;20371;-76
2023/08/13 15:21:01;;;;;;;3.63;3.30;;;;;29.10;96546.00;;;;8299497;28;20659;-74
2023/08/13 15:25:06;;;;;;;5.40;4.05;;;;;28.90;96539.00;;;;8298866;28;20255;-75
2023/08/13 15:29:13;;;;;;;3.50;3.20;;;;;28.80;96550.00;;;;8304460;28;20202;-75
2023/08/13 15:33:25;;;;;;;8.43;6.55;;;;;28.80;96542.00;;;;8297999;28;20242;-75
2023/08/13 15:37:29;;;;;;;5.18;4.43;;;;;28.60;96542.00;;;;8296200;28;20233;-74
2023/08/13 15:41:34;;;;;;;5.55;3.60;;;;;28.40;96538.00;;;;8295488;28;20226;-75
2023/08/13 15:45:37;;;;;;;7.57;3.50;;;;;28.30;96528.00;;;;8302723;28;20248;-75
2023/08/13 15:49:40;;;;;;;3.90;3.50;;;;;28.30;96531.00;;;;8294258;28;20209;-75
2023/08/13 15:53:45;;;;;;;3.85;3.47;;;;;28.10;96528.00;;;;8293381;28;20198;-74
2023/08/13 15:57:49;;;;;;;4.60;3.72;;;;;28.00;96524.00;;;;8295141;28;20272;-76
2023/08/13 16:01:53;;;;;;;5.30;3.75;;;;;27.80;96513.00;;;;8293297;28;20249;-76
2023/08/13 16:05:57;;;;;;;7.07;3.63;;;;;27.70;96517.00;;;;8294231;28;20891;-77
2023/08/13 16:10:08;;;;;;;5.53;4.03;;;;;27.70;96526.00;;;;8293463;28;20198;-76
2023/08/13 16:14:13;;;;;;;5.22;4.68;;;;;27.70;96522.00;;;;8281941;28;20204;-77
2023/08/13 16:18:16;;;;;;;4.70;4.10;;;;;27.90;96520.00;;;;8277576;28;20197;-77
2023/08/13 16:22:20;;;;;;;5.82;3.30;;;;;28.30;96519.00;;;;8302306;28;20206;-76
2023/08/13 16:26:24;;;;;;;3.92;3.47;;;;;28.70;96510.00;;;;8300566;28;20536;-76
2023/08/13 16:30:27;;;;;;;5.72;3.95;;;;;29.10;96503.00;;;;8303429;28;20697;-76
2023/08/13 16:34:32;;;;;;;8.43;4.05;;;;;29.50;96483.00;;;;8293851;28;20205;-76
2023/08/13 16:38:36;;;;;;;4.10;3.47;;;;;29.50;96470.00;;;;8284054;28;20201;-76
2023/08/13 16:42:40;;;;;;;4.65;3.75;;;;;29.50;96457.00;;;;8287115;28;20256;-76
2023/08/13 16:46:49;;;;;;;3.95;3.30;;;;;29.70;96463.00;;;;8284150;28;20298;-76
2023/08/13 16:50:55;;;;;;;5.40;4.07;;;;;29.60;96461.00;;;;8308505;28;20234;-76
2023/08/13 16:54:58;;;;;;;4.95;3.83;;;;;29.70;96468.00;;;;8291082;28;20239;-76
2023/08/13 16:59:03;;;;;;;7.63;4.40;;;;;29.80;96480.00;;;;8302304;28;20205;-76
2023/08/13 17:03:11;;;;;;;5.13;4.38;;;;;29.90;96465.00;;;;8289883;28;20255;-76
2023/08/13 17:07:15;;;;;;;9.48;5.22;;;;;30.10;96466.00;;;;8296592;28;20878;-76
2023/08/13 17:11:18;;;;;;;6.82;5.28;;;;;30.40;96470.00;;;;8310487;28;20582;-77
2023/08/13 17:15:25;;;;;;;5.05;3.90;;;;;30.40;96461.00;;;;8302744;28;20225;-76
2023/08/13 17:19:39;;;;;;;5.45;4.32;;;;;30.30;96477.00;;;;8301683;28;20194;-76
2023/08/13 17:23:45;;;;;;;5.32;4.15;;;;;29.70;96472.00;;;;8296924;28;20202;-77
2023/08/13 17:27:48;;;;;;;4.07;3.78;;;;;29.00;96472.00;;;;8315824;28;20280;-77
2023/08/13 17:31:53;;;;;;;9.32;5.00;;;;;28.40;96477.00;;;;8303371;28;20202;-77
2023/08/13 17:35:57;;;;;;;6.47;5.70;;;;;28.00;96479.00;;;;8302961;28;20291;-77
2023/08/13 17:40:02;;;;;;;7.70;5.45;;;;;27.60;96483.00;;;;8270878;28;20198;-76
2023/08/13 17:44:06;;;;;;;6.15;4.75;;;;;27.30;96483.00;;;;8298064;28;20205;-76
2023/08/13 17:48:16;;;;;;;5.20;4.60;;;;;27.10;96480.00;;;;8300695;28;20204;-76
2023/08/13 17:52:21;;;;;;;11.57;6.63;;;;;26.90;96479.00;;;;8311244;28;20199;-76
2023/08/13 17:56:27;;;;;;;6.22;5.20;;;;;26.70;96475.00;;;;8314979;28;20229;-76
2023/08/13 18:00:30;;;;;;;8.18;5.65;;;;;26.60;96475.00;;;;8275352;28;20289;-77
2023/08/13 18:04:38;;;;;;;6.78;5.75;;;;;26.50;96479.00;;;;8286620;28;20222;-76
2023/08/13 18:08:46;;;;;;;8.02;5.65;;;;;26.40;96483.00;;;;8282866;28;20607;-76
2023/08/13 18:13:07;;;;;;;6.32;5.50;;;;;26.20;96489.00;;;;8295205;28;20190;-72
2023/08/13 18:17:10;;;;;;;6.78;4.90;;;;;26.10;96480.00;;;;8289380;28;20236;-74
2023/08/13 18:21:16;;;;;;;7.85;5.40;;;;;25.90;96466.00;;;;8291195;28;20951;-73
2023/08/13 18:25:20;;;;;;;6.13;5.15;;;;;25.80;96466.00;;;;8297069;28;20194;-74
2023/08/13 18:29:26;;;;;;;5.53;4.40;;;;;25.70;96474.00;;;;8296006;28;20253;-74
2023/08/13 18:33:29;;;;;;;6.05;5.45;;;;;25.60;96471.00;;;;8295725;28;20205;-74
2023/08/13 18:37:37;;;;;;;5.45;4.90;;;;;25.50;96477.00;;;;8283458;28;20226;-73
2023/08/13 18:41:40;;;;;;;8.02;5.57;;;;;25.40;96472.00;;;;8289225;28;20715;-73
2023/08/13 18:45:46;;;;;;;9.57;5.53;;;;;25.30;96466.00;;;;8295873;28;20229;-72
2023/08/13 18:49:49;;;;;;;7.18;4.65;;;;;25.20;96479.00;;;;8296496;28;20225;-71
2023/08/13 18:53:54;;;;;;;7.65;5.07;;;;;25.10;96475.00;;;;8294756;28;20205;-72
2023/08/13 18:58:02;;;;;;;5.20;4.70;;;;;24.90;96463.00;;;;8278675;28;20708;-73
2023/08/13 19:02:05;;;;;;;7.95;5.25;;;;;24.80;96461.00;;;;8285429;28;20253;-74
2023/08/13 19:06:10;;;;;;;9.50;5.10;;;;;24.70;96470.00;;;;8294945;28;20205;-75
2023/08/13 19:10:16;;;;;;;11.23;5.10;;;;;24.60;96484.00;;;;8297560;28;20711;-76
2023/08/13 19:14:23;;;;;;;5.18;4.68;;;;;24.50;96505.00;;;;8296069;28;20386;-74
2023/08/13 19:18:26;;;;;;;5.82;5.03;;;;;24.40;96498.00;;;;8297816;28;20249;-74
2023/08/13 19:22:32;;;;;;;6.20;4.90;;;;;24.30;96493.00;;;;8298117;28;20206;-73
2023/08/13 19:26:36;;;;;;;6.18;4.80;;;;;24.20;96508.00;;;;8281714;28;20190;-73
2023/08/13 19:30:40;;;;;;;6.10;4.57;;;;;24.20;96511.00;;;;8282851;28;20198;-72
2023/08/13 19:34:46;;;;;;;5.20;4.70;;;;;24.10;96515.00;;;;8284261;28;20212;-72
2023/08/13 19:38:54;;;;;;;5.55;4.45;;;;;24.00;96526.00;;;;8291451;28;20229;-72
2023/08/13 19:43:02;;;;;;;6.85;4.60;;;;;23.90;96530.00;;;;8289121;28;20725;-74
2023/08/13 19:47:06;;;;;;;7.85;5.15;;;;;23.90;96528.00;;;;8288056;28;20701;-72
2023/08/13 19:51:09;;;;;;;6.30;5.22;;;;;23.70;96532.00;;;;8289945;28;20206;-73
2023/08/13 19:55:12;;;;;;;6.50;4.78;;;;;23.60;96542.00;;;;8297809;28;20198;-73
2023/08/13 19:59:17;;;;;;;11.40;5.07;;;;;23.40;96545.00;;;;8306354;28;20222;-72
2023/08/13 20:03:21;;;;;;;7.70;5.07;;;;;23.20;96554.00;;;;8287579;28;20253;-74
2023/08/13 20:07:25;;;;;;;6.00;5.00;;;;;23.00;96548.00;;;;8285960;28;20200;-71
2023/08/13 20:11:31;;;;;;;6.57;5.22;;;;;22.80;96540.00;;;;8296660;28;20193;-71
2023/08/13 20:15:36;;;;;;;9.02;5.00;;;;;22.80;96544.00;;;;8291495;28;20893;-70
2023/08/13 20:19:42;;;;;;;6.25;5.07;;;;;22.60;96546.00;;;;8287460;28;20238;-71
2023/08/13 20:23:50;;;;;;;5.50;5.00;;;;;22.60;96552.00;;;;8285131;28;20491;-72